sensor_id;sensor_type;location;lat;lon;timestamp;P1;durP1;ratioP1;P2;durP2;ratioP2
69030;SDS011;56083;48.774;8.942;2023-05-03T00:00:18;13.15;;;6.95;;
69030;SDS011;56083;48.774;8.942;2023-05-03T00:02:45;12.93;;;6.75;;
69030;SDS011;56083;48.774;8.942;2023-05-03T00:05:10;10.02;;;7.15;;
69030;SDS011;56083;48.774;8.942;2023-05-03T00:07:36;13.07;;;7.22;;
69030;SDS011;56083;48.774;8.942;2023-05-03T00:10:04;13.20;;;7.40;;
69030;SDS011;56083;48.774;8.942;2023-05-03T00:12:30;11.15;;;7.10;;
69030;SDS011;56083;48.774;8.942;2023-05-03T00:14:56;12.00;;;6.72;;
69030;SDS011;56083;48.774;8.942;2023-05-03T00:17:22;13.02;;;7.13;;
69030;SDS011;56083;48.774;8.942;2023-05-03T00:19:47;13.35;;;7.35;;
69030;SDS011;56083;48.774;8.942;2023-05-03T00:22:13;13.00;;;7.07;;
69030;SDS011;56083;48.774;8.942;2023-05-03T00:24:38;12.02;;;7.72;;
69030;SDS011;56083;48.774;8.942;2023-05-03T00:27:04;12.02;;;7.30;;
69030;SDS011;56083;48.774;8.942;2023-05-03T00:29:30;11.95;;;7.28;;
69030;SDS011;56083;48.774;8.942;2023-05-03T00:31:56;16.73;;;7.85;;
69030;SDS011;56083;48.774;8.942;2023-05-03T00:34:23;12.27;;;7.20;;
69030;SDS011;56083;48.774;8.942;2023-05-03T00:36:49;11.77;;;7.35;;
69030;SDS011;56083;48.774;8.942;2023-05-03T00:39:15;12.85;;;7.22;;
69030;SDS011;56083;48.774;8.942;2023-05-03T00:41:41;12.82;;;7.78;;
69030;SDS011;56083;48.774;8.942;2023-05-03T00:44:06;14.98;;;8.13;;
69030;SDS011;56083;48.774;8.942;2023-05-03T00:46:33;15.30;;;7.75;;
69030;SDS011;56083;48.774;8.942;2023-05-03T00:48:59;13.38;;;7.80;;
69030;SDS011;56083;48.774;8.942;2023-05-03T00:51:26;14.13;;;8.05;;
69030;SDS011;56083;48.774;8.942;2023-05-03T00:53:52;12.00;;;7.90;;
69030;SDS011;56083;48.774;8.942;2023-05-03T00:56:18;12.90;;;8.18;;
69030;SDS011;56083;48.774;8.942;2023-05-03T00:58:47;17.27;;;8.45;;
69030;SDS011;56083;48.774;8.942;2023-05-03T01:01:15;11.95;;;8.55;;
69030;SDS011;56083;48.774;8.942;2023-05-03T01:03:41;18.50;;;9.15;;
69030;SDS011;56083;48.774;8.942;2023-05-03T01:06:21;15.30;;;8.38;;
69030;SDS011;56083;48.774;8.942;2023-05-03T01:08:58;14.10;;;9.45;;
69030;SDS011;56083;48.774;8.942;2023-05-03T01:11:53;13.05;;;9.10;;
69030;SDS011;56083;48.774;8.942;2023-05-03T01:16:51;15.90;;;9.63;;
69030;SDS011;56083;48.774;8.942;2023-05-03T01:21:53;19.33;;;10.15;;
69030;SDS011;56083;48.774;8.942;2023-05-03T01:24:25;16.65;;;9.98;;
69030;SDS011;56083;48.774;8.942;2023-05-03T01:26:55;14.57;;;9.18;;
69030;SDS011;56083;48.774;8.942;2023-05-03T01:29:21;17.77;;;10.48;;
69030;SDS011;56083;48.774;8.942;2023-05-03T01:31:58;15.90;;;10.10;;
69030;SDS011;56083;48.774;8.942;2023-05-03T01:37:01;19.73;;;10.10;;
69030;SDS011;56083;48.774;8.942;2023-05-03T01:42:13;19.17;;;11.50;;
69030;SDS011;56083;48.774;8.942;2023-05-03T01:44:40;20.83;;;11.52;;
69030;SDS011;56083;48.774;8.942;2023-05-03T01:47:07;20.85;;;11.35;;
69030;SDS011;56083;48.774;8.942;2023-05-03T01:49:34;18.45;;;10.45;;
69030;SDS011;56083;48.774;8.942;2023-05-03T01:51:59;16.80;;;10.18;;
69030;SDS011;56083;48.774;8.942;2023-05-03T01:54:25;19.33;;;10.70;;
69030;SDS011;56083;48.774;8.942;2023-05-03T01:56:51;18.88;;;10.23;;
69030;SDS011;56083;48.774;8.942;2023-05-03T01:59:16;16.83;;;10.20;;
69030;SDS011;56083;48.774;8.942;2023-05-03T02:01:42;18.50;;;11.32;;
69030;SDS011;56083;48.774;8.942;2023-05-03T02:04:07;22.73;;;11.63;;
69030;SDS011;56083;48.774;8.942;2023-05-03T02:06:33;26.55;;;11.73;;
69030;SDS011;56083;48.774;8.942;2023-05-03T02:08:59;24.23;;;11.57;;
69030;SDS011;56083;48.774;8.942;2023-05-03T02:11:24;20.63;;;11.35;;
69030;SDS011;56083;48.774;8.942;2023-05-03T02:13:50;20.88;;;11.57;;
69030;SDS011;56083;48.774;8.942;2023-05-03T02:16:19;17.73;;;11.20;;
69030;SDS011;56083;48.774;8.942;2023-05-03T02:18:45;17.55;;;10.35;;
69030;SDS011;56083;48.774;8.942;2023-05-03T02:21:10;22.17;;;11.68;;
69030;SDS011;56083;48.774;8.942;2023-05-03T02:23:37;22.70;;;11.10;;
69030;SDS011;56083;48.774;8.942;2023-05-03T02:26:03;21.83;;;11.63;;
69030;SDS011;56083;48.774;8.942;2023-05-03T02:28:29;21.73;;;11.38;;
69030;SDS011;56083;48.774;8.942;2023-05-03T02:30:55;19.30;;;11.10;;
69030;SDS011;56083;48.774;8.942;2023-05-03T02:33:20;20.48;;;11.38;;
69030;SDS011;56083;48.774;8.942;2023-05-03T02:35:46;23.50;;;12.70;;
69030;SDS011;56083;48.774;8.942;2023-05-03T02:38:12;21.58;;;12.27;;
69030;SDS011;56083;48.774;8.942;2023-05-03T02:40:43;17.05;;;10.85;;
69030;SDS011;56083;48.774;8.942;2023-05-03T02:43:09;23.30;;;12.30;;
69030;SDS011;56083;48.774;8.942;2023-05-03T02:45:34;21.33;;;12.82;;
69030;SDS011;56083;48.774;8.942;2023-05-03T02:48:00;19.83;;;12.18;;
69030;SDS011;56083;48.774;8.942;2023-05-03T02:50:29;26.02;;;13.45;;
69030;SDS011;56083;48.774;8.942;2023-05-03T02:52:55;22.90;;;13.43;;
69030;SDS011;56083;48.774;8.942;2023-05-03T02:55:21;25.20;;;13.05;;
69030;SDS011;56083;48.774;8.942;2023-05-03T02:57:46;23.77;;;12.95;;
69030;SDS011;56083;48.774;8.942;2023-05-03T03:00:12;23.80;;;12.82;;
69030;SDS011;56083;48.774;8.942;2023-05-03T03:02:41;18.77;;;11.93;;
69030;SDS011;56083;48.774;8.942;2023-05-03T03:05:07;20.67;;;12.02;;
69030;SDS011;56083;48.774;8.942;2023-05-03T03:07:33;20.98;;;12.40;;
69030;SDS011;56083;48.774;8.942;2023-05-03T03:09:59;22.20;;;12.50;;
69030;SDS011;56083;48.774;8.942;2023-05-03T03:12:24;23.02;;;13.48;;
69030;SDS011;56083;48.774;8.942;2023-05-03T03:14:51;24.20;;;12.88;;
69030;SDS011;56083;48.774;8.942;2023-05-03T03:17:17;26.80;;;13.27;;
69030;SDS011;56083;48.774;8.942;2023-05-03T03:19:42;19.40;;;12.30;;
69030;SDS011;56083;48.774;8.942;2023-05-03T03:22:08;24.58;;;12.68;;
69030;SDS011;56083;48.774;8.942;2023-05-03T03:24:34;24.15;;;13.32;;
69030;SDS011;56083;48.774;8.942;2023-05-03T03:26:59;26.15;;;12.90;;
69030;SDS011;56083;48.774;8.942;2023-05-03T03:29:25;23.05;;;12.93;;
69030;SDS011;56083;48.774;8.942;2023-05-03T03:31:52;25.08;;;12.65;;
69030;SDS011;56083;48.774;8.942;2023-05-03T03:34:18;23.63;;;12.77;;
69030;SDS011;56083;48.774;8.942;2023-05-03T03:36:43;21.75;;;12.50;;
69030;SDS011;56083;48.774;8.942;2023-05-03T03:39:09;21.00;;;12.73;;
69030;SDS011;56083;48.774;8.942;2023-05-03T03:41:35;22.58;;;12.85;;
69030;SDS011;56083;48.774;8.942;2023-05-03T03:44:01;22.90;;;12.98;;
69030;SDS011;56083;48.774;8.942;2023-05-03T03:46:27;27.10;;;13.27;;
69030;SDS011;56083;48.774;8.942;2023-05-03T03:48:53;22.45;;;12.77;;
69030;SDS011;56083;48.774;8.942;2023-05-03T03:51:18;22.27;;;13.63;;
69030;SDS011;56083;48.774;8.942;2023-05-03T03:53:44;23.85;;;13.13;;
69030;SDS011;56083;48.774;8.942;2023-05-03T03:56:09;20.98;;;12.75;;
69030;SDS011;56083;48.774;8.942;2023-05-03T03:58:35;21.50;;;13.65;;
69030;SDS011;56083;48.774;8.942;2023-05-03T04:01:01;25.52;;;13.20;;
69030;SDS011;56083;48.774;8.942;2023-05-03T04:03:27;24.52;;;13.38;;
69030;SDS011;56083;48.774;8.942;2023-05-03T04:05:52;26.42;;;13.75;;
69030;SDS011;56083;48.774;8.942;2023-05-03T04:08:18;26.10;;;13.07;;
69030;SDS011;56083;48.774;8.942;2023-05-03T04:10:43;28.70;;;12.98;;
69030;SDS011;56083;48.774;8.942;2023-05-03T04:13:09;26.35;;;12.57;;
69030;SDS011;56083;48.774;8.942;2023-05-03T04:15:35;21.33;;;13.65;;
69030;SDS011;56083;48.774;8.942;2023-05-03T04:18:00;23.38;;;13.25;;
69030;SDS011;56083;48.774;8.942;2023-05-03T04:20:26;23.80;;;13.98;;
69030;SDS011;56083;48.774;8.942;2023-05-03T04:22:53;23.38;;;13.80;;
69030;SDS011;56083;48.774;8.942;2023-05-03T04:25:18;21.75;;;14.02;;
69030;SDS011;56083;48.774;8.942;2023-05-03T04:27:44;25.65;;;14.75;;
69030;SDS011;56083;48.774;8.942;2023-05-03T04:30:11;30.48;;;15.52;;
69030;SDS011;56083;48.774;8.942;2023-05-03T04:32:38;24.33;;;16.00;;
69030;SDS011;56083;48.774;8.942;2023-05-03T04:35:05;24.42;;;15.30;;
69030;SDS011;56083;48.774;8.942;2023-05-03T04:37:34;25.13;;;14.68;;
69030;SDS011;56083;48.774;8.942;2023-05-03T04:40:01;27.83;;;16.00;;
69030;SDS011;56083;48.774;8.942;2023-05-03T04:42:28;27.73;;;15.20;;
69030;SDS011;56083;48.774;8.942;2023-05-03T04:44:54;28.95;;;15.02;;
69030;SDS011;56083;48.774;8.942;2023-05-03T04:47:20;28.95;;;14.95;;
69030;SDS011;56083;48.774;8.942;2023-05-03T04:49:46;27.45;;;15.38;;
69030;SDS011;56083;48.774;8.942;2023-05-03T04:52:12;21.73;;;14.30;;
69030;SDS011;56083;48.774;8.942;2023-05-03T04:54:38;21.55;;;13.60;;
69030;SDS011;56083;48.774;8.942;2023-05-03T04:57:03;26.92;;;13.45;;
69030;SDS011;56083;48.774;8.942;2023-05-03T04:59:29;21.90;;;13.85;;
69030;SDS011;56083;48.774;8.942;2023-05-03T05:01:55;25.17;;;12.60;;
69030;SDS011;56083;48.774;8.942;2023-05-03T05:04:21;21.70;;;12.80;;
69030;SDS011;56083;48.774;8.942;2023-05-03T05:06:46;26.02;;;13.30;;
69030;SDS011;56083;48.774;8.942;2023-05-03T05:09:22;29.63;;;13.65;;
69030;SDS011;56083;48.774;8.942;2023-05-03T05:11:49;20.65;;;12.80;;
69030;SDS011;56083;48.774;8.942;2023-05-03T05:14:15;30.90;;;13.00;;
69030;SDS011;56083;48.774;8.942;2023-05-03T05:16:40;25.42;;;13.45;;
69030;SDS011;56083;48.774;8.942;2023-05-03T05:19:06;23.08;;;13.10;;
69030;SDS011;56083;48.774;8.942;2023-05-03T05:21:32;27.08;;;13.35;;
69030;SDS011;56083;48.774;8.942;2023-05-03T05:23:58;22.98;;;13.23;;
69030;SDS011;56083;48.774;8.942;2023-05-03T05:26:24;21.58;;;12.43;;
69030;SDS011;56083;48.774;8.942;2023-05-03T05:28:51;22.88;;;12.77;;
69030;SDS011;56083;48.774;8.942;2023-05-03T05:31:17;22.92;;;12.88;;
69030;SDS011;56083;48.774;8.942;2023-05-03T05:33:44;25.15;;;13.07;;
69030;SDS011;56083;48.774;8.942;2023-05-03T05:36:10;24.42;;;12.32;;
69030;SDS011;56083;48.774;8.942;2023-05-03T05:38:36;23.38;;;12.55;;
69030;SDS011;56083;48.774;8.942;2023-05-03T05:41:01;21.90;;;12.48;;
69030;SDS011;56083;48.774;8.942;2023-05-03T05:43:27;29.65;;;13.40;;
69030;SDS011;56083;48.774;8.942;2023-05-03T05:45:53;28.02;;;13.07;;
69030;SDS011;56083;48.774;8.942;2023-05-03T05:48:18;21.67;;;11.82;;
69030;SDS011;56083;48.774;8.942;2023-05-03T05:50:44;18.83;;;12.43;;
69030;SDS011;56083;48.774;8.942;2023-05-03T05:53:10;24.17;;;11.93;;
69030;SDS011;56083;48.774;8.942;2023-05-03T05:55:35;24.90;;;12.82;;
69030;SDS011;56083;48.774;8.942;2023-05-03T05:58:01;23.55;;;12.60;;
69030;SDS011;56083;48.774;8.942;2023-05-03T06:00:27;22.80;;;13.25;;
69030;SDS011;56083;48.774;8.942;2023-05-03T06:02:53;23.60;;;12.65;;
69030;SDS011;56083;48.774;8.942;2023-05-03T06:05:19;25.52;;;11.90;;
69030;SDS011;56083;48.774;8.942;2023-05-03T06:07:45;22.58;;;11.23;;
69030;SDS011;56083;48.774;8.942;2023-05-03T06:10:11;20.65;;;11.57;;
69030;SDS011;56083;48.774;8.942;2023-05-03T06:12:36;17.60;;;10.55;;
69030;SDS011;56083;48.774;8.942;2023-05-03T06:15:02;22.05;;;11.65;;
69030;SDS011;56083;48.774;8.942;2023-05-03T06:17:28;18.83;;;10.63;;
69030;SDS011;56083;48.774;8.942;2023-05-03T06:19:54;17.95;;;11.10;;
69030;SDS011;56083;48.774;8.942;2023-05-03T06:22:19;18.80;;;11.25;;
69030;SDS011;56083;48.774;8.942;2023-05-03T06:24:45;23.83;;;12.10;;
69030;SDS011;56083;48.774;8.942;2023-05-03T06:27:11;18.77;;;11.13;;
69030;SDS011;56083;48.774;8.942;2023-05-03T06:29:36;21.42;;;12.02;;
69030;SDS011;56083;48.774;8.942;2023-05-03T06:32:02;25.00;;;12.85;;
69030;SDS011;56083;48.774;8.942;2023-05-03T06:34:28;21.45;;;11.38;;
69030;SDS011;56083;48.774;8.942;2023-05-03T06:36:54;21.23;;;12.55;;
69030;SDS011;56083;48.774;8.942;2023-05-03T06:39:20;18.67;;;12.18;;
69030;SDS011;56083;48.774;8.942;2023-05-03T06:41:45;21.17;;;12.02;;
69030;SDS011;56083;48.774;8.942;2023-05-03T06:44:11;17.58;;;11.90;;
69030;SDS011;56083;48.774;8.942;2023-05-03T06:46:36;20.23;;;12.35;;
69030;SDS011;56083;48.774;8.942;2023-05-03T06:49:02;21.02;;;13.20;;
69030;SDS011;56083;48.774;8.942;2023-05-03T06:51:28;26.05;;;13.18;;
69030;SDS011;56083;48.774;8.942;2023-05-03T06:53:57;18.58;;;11.57;;
69030;SDS011;56083;48.774;8.942;2023-05-03T06:56:30;20.45;;;12.23;;
69030;SDS011;56083;48.774;8.942;2023-05-03T06:58:57;21.45;;;12.27;;
69030;SDS011;56083;48.774;8.942;2023-05-03T07:01:24;20.08;;;12.20;;
69030;SDS011;56083;48.774;8.942;2023-05-03T07:03:49;21.88;;;11.82;;
69030;SDS011;56083;48.774;8.942;2023-05-03T07:06:15;19.58;;;11.57;;
69030;SDS011;56083;48.774;8.942;2023-05-03T07:08:40;22.98;;;13.07;;
69030;SDS011;56083;48.774;8.942;2023-05-03T07:11:06;21.63;;;12.70;;
69030;SDS011;56083;48.774;8.942;2023-05-03T07:13:32;22.88;;;12.88;;
69030;SDS011;56083;48.774;8.942;2023-05-03T07:15:58;22.67;;;12.50;;
69030;SDS011;56083;48.774;8.942;2023-05-03T07:18:24;25.48;;;12.50;;
69030;SDS011;56083;48.774;8.942;2023-05-03T07:20:50;19.08;;;12.40;;
69030;SDS011;56083;48.774;8.942;2023-05-03T07:23:15;16.42;;;11.27;;
69030;SDS011;56083;48.774;8.942;2023-05-03T07:25:41;19.08;;;11.35;;
69030;SDS011;56083;48.774;8.942;2023-05-03T07:28:08;19.75;;;11.85;;
69030;SDS011;56083;48.774;8.942;2023-05-03T07:30:34;18.77;;;11.75;;
69030;SDS011;56083;48.774;8.942;2023-05-03T07:32:59;21.67;;;11.30;;
69030;SDS011;56083;48.774;8.942;2023-05-03T07:35:25;16.35;;;11.02;;
69030;SDS011;56083;48.774;8.942;2023-05-03T07:37:51;16.25;;;10.65;;
69030;SDS011;56083;48.774;8.942;2023-05-03T07:40:17;16.77;;;10.75;;
69030;SDS011;56083;48.774;8.942;2023-05-03T07:42:43;19.23;;;9.95;;
69030;SDS011;56083;48.774;8.942;2023-05-03T07:45:09;17.60;;;10.23;;
69030;SDS011;56083;48.774;8.942;2023-05-03T07:47:35;18.95;;;10.57;;
69030;SDS011;56083;48.774;8.942;2023-05-03T07:50:04;19.58;;;10.77;;
69030;SDS011;56083;48.774;8.942;2023-05-03T07:52:34;12.52;;;7.95;;
69030;SDS011;56083;48.774;8.942;2023-05-03T07:55:04;20.20;;;9.50;;
69030;SDS011;56083;48.774;8.942;2023-05-03T07:57:30;15.90;;;9.75;;
69030;SDS011;56083;48.774;8.942;2023-05-03T07:59:56;12.27;;;8.43;;
69030;SDS011;56083;48.774;8.942;2023-05-03T08:02:22;13.68;;;9.13;;
69030;SDS011;56083;48.774;8.942;2023-05-03T08:04:48;17.48;;;8.80;;
69030;SDS011;56083;48.774;8.942;2023-05-03T08:07:13;11.65;;;7.38;;
69030;SDS011;56083;48.774;8.942;2023-05-03T08:09:39;12.52;;;7.28;;
69030;SDS011;56083;48.774;8.942;2023-05-03T08:12:05;13.23;;;7.32;;
69030;SDS011;56083;48.774;8.942;2023-05-03T08:14:31;17.23;;;8.80;;
69030;SDS011;56083;48.774;8.942;2023-05-03T08:16:57;13.02;;;7.85;;
69030;SDS011;56083;48.774;8.942;2023-05-03T08:19:24;10.68;;;7.07;;
69030;SDS011;56083;48.774;8.942;2023-05-03T08:21:49;15.23;;;7.18;;
69030;SDS011;56083;48.774;8.942;2023-05-03T08:24:18;11.40;;;7.70;;
69030;SDS011;56083;48.774;8.942;2023-05-03T08:26:44;11.35;;;7.00;;
69030;SDS011;56083;48.774;8.942;2023-05-03T08:29:12;13.10;;;7.35;;
69030;SDS011;56083;48.774;8.942;2023-05-03T08:31:39;14.68;;;7.97;;
69030;SDS011;56083;48.774;8.942;2023-05-03T08:34:05;10.25;;;7.18;;
69030;SDS011;56083;48.774;8.942;2023-05-03T08:36:32;14.73;;;7.30;;
69030;SDS011;56083;48.774;8.942;2023-05-03T08:38:58;10.15;;;7.82;;
69030;SDS011;56083;48.774;8.942;2023-05-03T08:41:27;16.80;;;8.23;;
69030;SDS011;56083;48.774;8.942;2023-05-03T08:43:55;12.88;;;8.00;;
69030;SDS011;56083;48.774;8.942;2023-05-03T08:46:21;12.90;;;7.78;;
69030;SDS011;56083;48.774;8.942;2023-05-03T08:48:50;16.42;;;7.57;;
69030;SDS011;56083;48.774;8.942;2023-05-03T08:51:17;9.98;;;7.07;;
69030;SDS011;56083;48.774;8.942;2023-05-03T08:53:43;14.02;;;8.43;;
69030;SDS011;56083;48.774;8.942;2023-05-03T08:56:10;12.60;;;7.95;;
69030;SDS011;56083;48.774;8.942;2023-05-03T08:58:40;10.10;;;7.95;;
69030;SDS011;56083;48.774;8.942;2023-05-03T09:01:06;12.57;;;6.68;;
69030;SDS011;56083;48.774;8.942;2023-05-03T09:03:33;12.23;;;7.93;;
69030;SDS011;56083;48.774;8.942;2023-05-03T09:05:59;12.02;;;7.53;;
69030;SDS011;56083;48.774;8.942;2023-05-03T09:08:29;13.90;;;7.78;;
69030;SDS011;56083;48.774;8.942;2023-05-03T09:10:55;12.23;;;7.57;;
69030;SDS011;56083;48.774;8.942;2023-05-03T09:13:27;11.65;;;8.15;;
69030;SDS011;56083;48.774;8.942;2023-05-03T09:18:21;14.52;;;7.97;;
69030;SDS011;56083;48.774;8.942;2023-05-03T09:20:48;10.77;;;7.65;;
69030;SDS011;56083;48.774;8.942;2023-05-03T09:23:15;10.77;;;6.30;;
69030;SDS011;56083;48.774;8.942;2023-05-03T09:25:44;8.93;;;6.35;;
69030;SDS011;56083;48.774;8.942;2023-05-03T09:28:15;13.13;;;7.72;;
69030;SDS011;56083;48.774;8.942;2023-05-03T09:30:42;10.48;;;7.15;;
69030;SDS011;56083;48.774;8.942;2023-05-03T09:33:08;10.40;;;7.65;;
69030;SDS011;56083;48.774;8.942;2023-05-03T09:35:35;12.73;;;7.95;;
69030;SDS011;56083;48.774;8.942;2023-05-03T09:38:02;11.00;;;7.25;;
69030;SDS011;56083;48.774;8.942;2023-05-03T09:40:27;13.35;;;8.30;;
69030;SDS011;56083;48.774;8.942;2023-05-03T09:43:12;10.95;;;7.63;;
69030;SDS011;56083;48.774;8.942;2023-05-03T09:45:40;10.82;;;7.95;;
69030;SDS011;56083;48.774;8.942;2023-05-03T09:48:06;9.98;;;7.50;;
69030;SDS011;56083;48.774;8.942;2023-05-03T09:50:32;12.60;;;7.15;;
69030;SDS011;56083;48.774;8.942;2023-05-03T09:53:00;14.63;;;8.90;;
69030;SDS011;56083;48.774;8.942;2023-05-03T09:55:34;12.25;;;7.75;;
69030;SDS011;56083;48.774;8.942;2023-05-03T09:58:03;12.45;;;7.40;;
69030;SDS011;56083;48.774;8.942;2023-05-03T10:03:06;8.02;;;6.30;;
69030;SDS011;56083;48.774;8.942;2023-05-03T10:05:35;8.57;;;7.20;;
69030;SDS011;56083;48.774;8.942;2023-05-03T10:08:56;12.73;;;6.90;;
69030;SDS011;56083;48.774;8.942;2023-05-03T10:11:07;9.63;;;7.13;;
69030;SDS011;56083;48.774;8.942;2023-05-03T10:13:33;12.65;;;6.95;;
69030;SDS011;56083;48.774;8.942;2023-05-03T10:16:01;8.60;;;6.78;;
69030;SDS011;56083;48.774;8.942;2023-05-03T10:18:31;10.32;;;7.53;;
69030;SDS011;56083;48.774;8.942;2023-05-03T10:21:00;9.48;;;6.80;;
69030;SDS011;56083;48.774;8.942;2023-05-03T10:23:30;9.80;;;6.75;;
69030;SDS011;56083;48.774;8.942;2023-05-03T10:28:38;11.20;;;7.30;;
69030;SDS011;56083;48.774;8.942;2023-05-03T10:31:04;10.48;;;7.28;;
69030;SDS011;56083;48.774;8.942;2023-05-03T10:33:32;9.63;;;6.82;;
69030;SDS011;56083;48.774;8.942;2023-05-03T10:36:05;9.35;;;7.15;;
69030;SDS011;56083;48.774;8.942;2023-05-03T10:38:34;11.15;;;7.50;;
69030;SDS011;56083;48.774;8.942;2023-05-03T10:41:01;8.30;;;6.70;;
69030;SDS011;56083;48.774;8.942;2023-05-03T10:48:25;13.68;;;7.60;;
69030;SDS011;56083;48.774;8.942;2023-05-03T10:50:52;9.70;;;7.10;;
69030;SDS011;56083;48.774;8.942;2023-05-03T10:53:35;10.85;;;7.10;;
69030;SDS011;56083;48.774;8.942;2023-05-03T10:58:32;10.90;;;6.55;;
69030;SDS011;56083;48.774;8.942;2023-05-03T11:01:06;9.30;;;6.30;;
69030;SDS011;56083;48.774;8.942;2023-05-03T11:06:00;9.38;;;6.60;;
69030;SDS011;56083;48.774;8.942;2023-05-03T11:08:27;9.25;;;5.50;;
69030;SDS011;56083;48.774;8.942;2023-05-03T11:11:01;8.77;;;5.97;;
69030;SDS011;56083;48.774;8.942;2023-05-03T11:13:33;6.85;;;5.82;;
69030;SDS011;56083;48.774;8.942;2023-05-03T11:16:02;9.40;;;5.72;;
69030;SDS011;56083;48.774;8.942;2023-05-03T11:18:31;8.30;;;6.50;;
69030;SDS011;56083;48.774;8.942;2023-05-03T11:20:57;8.60;;;5.70;;
69030;SDS011;56083;48.774;8.942;2023-05-03T11:23:25;10.18;;;5.65;;
69030;SDS011;56083;48.774;8.942;2023-05-03T11:25:52;8.45;;;6.03;;
69030;SDS011;56083;48.774;8.942;2023-05-03T11:28:18;7.00;;;5.38;;
69030;SDS011;56083;48.774;8.942;2023-05-03T11:30:44;8.13;;;6.38;;
69030;SDS011;56083;48.774;8.942;2023-05-03T11:33:11;9.63;;;6.30;;
69030;SDS011;56083;48.774;8.942;2023-05-03T11:35:36;10.88;;;7.28;;
69030;SDS011;56083;48.774;8.942;2023-05-03T11:38:03;9.18;;;6.25;;
69030;SDS011;56083;48.774;8.942;2023-05-03T11:40:28;11.25;;;6.80;;
69030;SDS011;56083;48.774;8.942;2023-05-03T11:42:54;11.32;;;7.35;;
69030;SDS011;56083;48.774;8.942;2023-05-03T11:45:23;10.00;;;6.25;;
69030;SDS011;56083;48.774;8.942;2023-05-03T11:47:49;9.38;;;6.45;;
69030;SDS011;56083;48.774;8.942;2023-05-03T11:50:16;9.35;;;6.07;;
69030;SDS011;56083;48.774;8.942;2023-05-03T11:52:42;9.18;;;5.93;;
69030;SDS011;56083;48.774;8.942;2023-05-03T11:55:09;10.70;;;5.50;;
69030;SDS011;56083;48.774;8.942;2023-05-03T11:57:36;7.68;;;5.25;;
69030;SDS011;56083;48.774;8.942;2023-05-03T12:00:09;6.60;;;5.07;;
69030;SDS011;56083;48.774;8.942;2023-05-03T12:02:41;10.05;;;5.30;;
69030;SDS011;56083;48.774;8.942;2023-05-03T12:05:07;7.35;;;5.53;;
69030;SDS011;56083;48.774;8.942;2023-05-03T12:07:33;6.78;;;5.10;;
69030;SDS011;56083;48.774;8.942;2023-05-03T12:10:10;8.35;;;5.00;;
69030;SDS011;56083;48.774;8.942;2023-05-03T12:12:37;8.32;;;4.95;;
69030;SDS011;56083;48.774;8.942;2023-05-03T12:15:03;9.98;;;5.10;;
69030;SDS011;56083;48.774;8.942;2023-05-03T12:17:36;8.35;;;5.10;;
69030;SDS011;56083;48.774;8.942;2023-05-03T12:20:16;8.85;;;5.95;;
69030;SDS011;56083;48.774;8.942;2023-05-03T12:22:43;9.80;;;5.90;;
69030;SDS011;56083;48.774;8.942;2023-05-03T12:25:11;8.40;;;5.70;;
69030;SDS011;56083;48.774;8.942;2023-05-03T12:27:37;7.13;;;5.20;;
69030;SDS011;56083;48.774;8.942;2023-05-03T12:30:03;7.40;;;5.03;;
69030;SDS011;56083;48.774;8.942;2023-05-03T12:32:29;6.63;;;5.10;;
69030;SDS011;56083;48.774;8.942;2023-05-03T12:34:55;8.93;;;5.05;;
69030;SDS011;56083;48.774;8.942;2023-05-03T12:37:20;8.60;;;4.45;;
69030;SDS011;56083;48.774;8.942;2023-05-03T12:39:46;7.63;;;3.80;;
69030;SDS011;56083;48.774;8.942;2023-05-03T12:42:12;7.18;;;4.00;;
69030;SDS011;56083;48.774;8.942;2023-05-03T12:44:38;6.22;;;3.63;;
69030;SDS011;56083;48.774;8.942;2023-05-03T12:47:04;6.35;;;4.30;;
69030;SDS011;56083;48.774;8.942;2023-05-03T12:49:30;8.10;;;4.15;;
69030;SDS011;56083;48.774;8.942;2023-05-03T12:51:55;7.32;;;3.85;;
69030;SDS011;56083;48.774;8.942;2023-05-03T12:54:24;8.25;;;4.38;;
69030;SDS011;56083;48.774;8.942;2023-05-03T12:56:50;6.47;;;4.30;;
69030;SDS011;56083;48.774;8.942;2023-05-03T12:59:16;5.88;;;3.90;;
69030;SDS011;56083;48.774;8.942;2023-05-03T13:01:41;5.97;;;4.10;;
69030;SDS011;56083;48.774;8.942;2023-05-03T13:04:07;5.75;;;3.38;;
69030;SDS011;56083;48.774;8.942;2023-05-03T13:06:33;6.75;;;3.60;;
69030;SDS011;56083;48.774;8.942;2023-05-03T13:09:00;5.00;;;3.42;;
69030;SDS011;56083;48.774;8.942;2023-05-03T13:11:26;6.47;;;3.38;;
69030;SDS011;56083;48.774;8.942;2023-05-03T13:13:53;5.63;;;3.53;;
69030;SDS011;56083;48.774;8.942;2023-05-03T13:16:19;5.45;;;3.90;;
69030;SDS011;56083;48.774;8.942;2023-05-03T13:18:44;4.97;;;3.47;;
69030;SDS011;56083;48.774;8.942;2023-05-03T13:21:10;5.63;;;3.35;;
69030;SDS011;56083;48.774;8.942;2023-05-03T13:23:36;6.88;;;3.65;;
69030;SDS011;56083;48.774;8.942;2023-05-03T13:26:02;6.20;;;3.95;;
69030;SDS011;56083;48.774;8.942;2023-05-03T13:28:27;5.32;;;3.50;;
69030;SDS011;56083;48.774;8.942;2023-05-03T13:30:53;5.90;;;3.60;;
69030;SDS011;56083;48.774;8.942;2023-05-03T13:33:18;7.70;;;3.63;;
69030;SDS011;56083;48.774;8.942;2023-05-03T13:35:44;4.88;;;3.30;;
69030;SDS011;56083;48.774;8.942;2023-05-03T13:38:10;9.13;;;3.20;;
69030;SDS011;56083;48.774;8.942;2023-05-03T13:40:35;8.73;;;3.10;;
69030;SDS011;56083;48.774;8.942;2023-05-03T13:43:01;5.63;;;3.30;;
69030;SDS011;56083;48.774;8.942;2023-05-03T13:45:27;5.28;;;3.90;;
69030;SDS011;56083;48.774;8.942;2023-05-03T13:47:53;7.32;;;4.03;;
69030;SDS011;56083;48.774;8.942;2023-05-03T13:50:19;5.57;;;3.72;;
69030;SDS011;56083;48.774;8.942;2023-05-03T13:52:45;8.45;;;4.03;;
69030;SDS011;56083;48.774;8.942;2023-05-03T13:55:10;5.28;;;3.70;;
69030;SDS011;56083;48.774;8.942;2023-05-03T13:57:36;6.60;;;3.63;;
69030;SDS011;56083;48.774;8.942;2023-05-03T14:00:01;4.60;;;3.17;;
69030;SDS011;56083;48.774;8.942;2023-05-03T14:02:28;7.78;;;3.00;;
69030;SDS011;56083;48.774;8.942;2023-05-03T14:04:54;5.53;;;3.58;;
69030;SDS011;56083;48.774;8.942;2023-05-03T14:07:19;5.13;;;3.42;;
69030;SDS011;56083;48.774;8.942;2023-05-03T14:09:45;4.90;;;2.92;;
69030;SDS011;56083;48.774;8.942;2023-05-03T14:12:11;5.13;;;3.03;;
69030;SDS011;56083;48.774;8.942;2023-05-03T14:14:36;7.32;;;2.78;;
69030;SDS011;56083;48.774;8.942;2023-05-03T14:17:02;5.60;;;3.53;;
69030;SDS011;56083;48.774;8.942;2023-05-03T14:19:27;7.40;;;3.35;;
69030;SDS011;56083;48.774;8.942;2023-05-03T14:21:56;5.32;;;3.13;;
69030;SDS011;56083;48.774;8.942;2023-05-03T14:24:23;4.20;;;3.00;;
69030;SDS011;56083;48.774;8.942;2023-05-03T14:26:50;8.88;;;3.58;;
69030;SDS011;56083;48.774;8.942;2023-05-03T14:29:16;4.05;;;3.10;;
69030;SDS011;56083;48.774;8.942;2023-05-03T14:31:41;6.13;;;2.97;;
69030;SDS011;56083;48.774;8.942;2023-05-03T14:34:07;4.10;;;3.08;;
69030;SDS011;56083;48.774;8.942;2023-05-03T14:36:33;8.57;;;3.38;;
69030;SDS011;56083;48.774;8.942;2023-05-03T14:39:00;4.93;;;3.25;;
69030;SDS011;56083;48.774;8.942;2023-05-03T14:41:28;5.25;;;3.17;;
69030;SDS011;56083;48.774;8.942;2023-05-03T14:43:54;6.03;;;3.20;;
69030;SDS011;56083;48.774;8.942;2023-05-03T14:46:20;9.13;;;3.17;;
69030;SDS011;56083;48.774;8.942;2023-05-03T14:48:46;8.52;;;3.63;;
69030;SDS011;56083;48.774;8.942;2023-05-03T14:51:11;7.47;;;2.80;;
69030;SDS011;56083;48.774;8.942;2023-05-03T14:53:38;5.60;;;2.50;;
69030;SDS011;56083;48.774;8.942;2023-05-03T14:56:04;6.60;;;2.45;;
69030;SDS011;56083;48.774;8.942;2023-05-03T14:58:30;4.78;;;2.55;;